sensor_id;sensor_type;location;lat;lon;timestamp;P1;P2;P0
77354;PMS7003;66422;51.202;19.936;2023-12-20T00:03:37;28.33;20.33;13.00
77354;PMS7003;66422;51.202;19.936;2023-12-20T00:18:56;31.50;23.50;16.00
77354;PMS7003;66422;51.202;19.936;2023-12-20T00:34:16;33.00;20.00;14.00
77354;PMS7003;66422;51.202;19.936;2023-12-20T00:49:36;25.50;20.00;12.50
77354;PMS7003;66422;51.202;19.936;2023-12-20T01:04:55;22.33;21.00;16.33
77354;PMS7003;66422;51.202;19.936;2023-12-20T01:20:15;35.00;24.00;16.50
77354;PMS7003;66422;51.202;19.936;2023-12-20T01:35:34;23.67;16.67;13.67
77354;PMS7003;66422;51.202;19.936;2023-12-20T01:50:54;32.00;25.00;20.00
77354;PMS7003;66422;51.202;19.936;2023-12-20T02:06:14;35.00;25.50;16.50
77354;PMS7003;66422;51.202;19.936;2023-12-20T02:21:34;36.00;26.00;18.50
77354;PMS7003;66422;51.202;19.936;2023-12-20T02:36:54;46.00;26.00;19.00
77354;PMS7003;66422;51.202;19.936;2023-12-20T02:52:14;28.33;26.00;18.00
77354;PMS7003;66422;51.202;19.936;2023-12-20T03:07:33;36.50;25.50;17.50
77354;PMS7003;66422;51.202;19.936;2023-12-20T03:22:53;30.67;25.33;20.33
77354;PMS7003;66422;51.202;19.936;2023-12-20T03:38:13;27.50;21.50;14.50
77354;PMS7003;66422;51.202;19.936;2023-12-20T03:53:32;28.00;21.00;14.50
77354;PMS7003;66422;51.202;19.936;2023-12-20T04:08:51;24.00;18.00;14.00
77354;PMS7003;66422;51.202;19.936;2023-12-20T04:24:11;17.00;15.00;11.00
77354;PMS7003;66422;51.202;19.936;2023-12-20T04:39:31;21.00;18.33;16.33
77354;PMS7003;66422;51.202;19.936;2023-12-20T04:54:50;34.00;26.00;17.50
77354;PMS7003;66422;51.202;19.936;2023-12-20T05:10:10;29.00;17.00;11.00
77354;PMS7003;66422;51.202;19.936;2023-12-20T05:25:29;33.50;23.50;16.00
77354;PMS7003;66422;51.202;19.936;2023-12-20T05:40:48;14.67;10.00;7.00
77354;PMS7003;66422;51.202;19.936;2023-12-20T05:56:08;19.00;15.00;12.00
77354;PMS7003;66422;51.202;19.936;2023-12-20T06:11:28;15.00;13.00;10.00
77354;PMS7003;66422;51.202;19.936;2023-12-20T06:26:47;13.00;11.00;9.00
77354;PMS7003;66422;51.202;19.936;2023-12-20T06:42:07;21.50;11.50;8.75
77354;PMS7003;66422;51.202;19.936;2023-12-20T06:57:26;7.00;7.00;5.00
77354;PMS7003;66422;51.202;19.936;2023-12-20T07:12:46;10.00;4.00;2.00
77354;PMS7003;66422;51.202;19.936;2023-12-20T07:28:05;6.00;3.33;1.33
77354;PMS7003;66422;51.202;19.936;2023-12-20T07:43:25;8.00;4.00;2.00
77354;PMS7003;66422;51.202;19.936;2023-12-20T07:58:44;4.00;4.00;2.00
77354;PMS7003;66422;51.202;19.936;2023-12-20T08:14:05;1.00;1.00;1.00
77354;PMS7003;66422;51.202;19.936;2023-12-20T08:29:25;2.00;1.00;1.00
77354;PMS7003;66422;51.202;19.936;2023-12-20T08:44:44;1.00;1.00;1.00
77354;PMS7003;66422;51.202;19.936;2023-12-20T09:00:04;2.50;1.00;0.75
77354;PMS7003;66422;51.202;19.936;2023-12-20T09:15:26;5.00;3.00;1.50
77354;PMS7003;66422;51.202;19.936;2023-12-20T09:30:46;4.67;2.00;1.67
77354;PMS7003;66422;51.202;19.936;2023-12-20T09:46:06;1.00;1.00;1.00
77354;PMS7003;66422;51.202;19.936;2023-12-20T10:01:27;2.00;2.00;1.00
77354;PMS7003;66422;51.202;19.936;2023-12-20T10:16:47;4.00;2.00;1.50
77354;PMS7003;66422;51.202;19.936;2023-12-20T10:32:28;3.67;2.00;1.00
77354;PMS7003;66422;51.202;19.936;2023-12-20T10:47:46;3.33;2.00;1.00
77354;PMS7003;66422;51.202;19.936;2023-12-20T11:03:08;8.00;4.00;4.00
77354;PMS7003;66422;51.202;19.936;2023-12-20T11:18:29;10.00;6.00;5.00
77354;PMS7003;66422;51.202;19.936;2023-12-20T11:33:52;6.00;4.00;4.00
77354;PMS7003;66422;51.202;19.936;2023-12-20T11:49:33;8.67;6.00;4.67
77354;PMS7003;66422;51.202;19.936;2023-12-20T12:04:52;13.50;6.00;4.50
77354;PMS7003;66422;51.202;19.936;2023-12-20T12:20:12;8.00;4.00;2.00
77354;PMS7003;66422;51.202;19.936;2023-12-20T12:35:31;5.00;3.00;2.00
77354;PMS7003;66422;51.202;19.936;2023-12-20T12:50:51;9.50;6.00;4.00
77354;PMS7003;66422;51.202;19.936;2023-12-20T13:06:12;8.67;5.00;5.00
77354;PMS7003;66422;51.202;19.936;2023-12-20T13:21:31;8.33;6.33;5.33
77354;PMS7003;66422;51.202;19.936;2023-12-20T13:36:51;10.00;8.00;6.00
77354;PMS7003;66422;51.202;19.936;2023-12-20T13:52:10;14.00;8.00;5.50
77354;PMS7003;66422;51.202;19.936;2023-12-20T14:07:30;10.00;8.00;5.00
77354;PMS7003;66422;51.202;19.936;2023-12-20T14:22:50;9.75;5.75;4.75
77354;PMS7003;66422;51.202;19.936;2023-12-20T14:38:10;10.67;7.33;5.00
77354;PMS7003;66422;51.202;19.936;2023-12-20T14:53:30;6.00;6.00;4.00
77354;PMS7003;66422;51.202;19.936;2023-12-20T15:08:49;13.67;9.00;6.00
77354;PMS7003;66422;51.202;19.936;2023-12-20T15:24:11;15.00;6.00;5.50
77354;PMS7003;66422;51.202;19.936;2023-12-20T15:39:35;7.00;7.00;6.50
77354;PMS7003;66422;51.202;19.936;2023-12-20T15:54:54;12.00;11.00;6.00
77354;PMS7003;66422;51.202;19.936;2023-12-20T16:10:14;13.25;8.00;5.00
77354;PMS7003;66422;51.202;19.936;2023-12-20T16:25:34;8.00;7.00;5.00
77354;PMS7003;66422;51.202;19.936;2023-12-20T16:40:56;9.00;8.00;7.00
77354;PMS7003;66422;51.202;19.936;2023-12-20T16:56:16;15.50;11.50;7.25
77354;PMS7003;66422;51.202;19.936;2023-12-20T17:11:36;14.00;10.00;7.50
77354;PMS7003;66422;51.202;19.936;2023-12-20T17:26:57;17.50;13.00;8.00
77354;PMS7003;66422;51.202;19.936;2023-12-20T17:42:17;25.50;14.00;9.00
77354;PMS7003;66422;51.202;19.936;2023-12-20T17:57:36;17.00;12.00;8.00
77354;PMS7003;66422;51.202;19.936;2023-12-20T18:12:56;19.00;12.00;9.00
77354;PMS7003;66422;51.202;19.936;2023-12-20T18:28:16;17.00;13.00;9.00
77354;PMS7003;66422;51.202;19.936;2023-12-20T18:43:36;12.00;11.00;8.50
77354;PMS7003;66422;51.202;19.936;2023-12-20T18:58:55;16.50;10.50;7.50
77354;PMS7003;66422;51.202;19.936;2023-12-20T19:14:15;9.00;8.00;5.00
77354;PMS7003;66422;51.202;19.936;2023-12-20T19:29:35;15.00;11.00;6.00
77354;PMS7003;66422;51.202;19.936;2023-12-20T19:44:55;23.00;11.50;9.00
77354;PMS7003;66422;51.202;19.936;2023-12-20T20:00:14;15.50;8.50;6.50
77354;PMS7003;66422;51.202;19.936;2023-12-20T20:15:34;12.00;10.50;8.00
77354;PMS7003;66422;51.202;19.936;2023-12-20T20:30:54;9.00;6.50;3.50
77354;PMS7003;66422;51.202;19.936;2023-12-20T20:46:14;9.00;5.00;5.00
77354;PMS7003;66422;51.202;19.936;2023-12-20T21:01:35;14.00;9.25;7.00
77354;PMS7003;66422;51.202;19.936;2023-12-20T21:16:55;5.00;4.00;4.00
77354;PMS7003;66422;51.202;19.936;2023-12-20T21:32:15;9.00;3.00;2.00
77354;PMS7003;66422;51.202;19.936;2023-12-20T21:47:35;11.00;2.00;1.33
77354;PMS7003;66422;51.202;19.936;2023-12-20T22:02:55;4.00;2.00;1.00
77354;PMS7003;66422;51.202;19.936;2023-12-20T22:18:17;8.00;2.00;2.00
77354;PMS7003;66422;51.202;19.936;2023-12-20T22:33:36;7.00;2.00;1.00
77354;PMS7003;66422;51.202;19.936;2023-12-20T22:48:56;6.00;4.00;2.00
77354;PMS7003;66422;51.202;19.936;2023-12-20T23:04:16;4.33;4.33;1.67
77354;PMS7003;66422;51.202;19.936;2023-12-20T23:19:36;4.67;2.00;1.67
77354;PMS7003;66422;51.202;19.936;2023-12-20T23:34:56;5.00;1.00;1.00
77354;PMS7003;66422;51.202;19.936;2023-12-20T23:50:15;1.33;1.00;1.00
